sensor_id;sensor_type;location;lat;lon;timestamp;temperature;humidity
10030;DHT22;5055;52.054;8.524;2023-04-07T00:01:47;8.10;97.00
10030;DHT22;5055;52.054;8.524;2023-04-07T00:04:15;8.10;97.00
10030;DHT22;5055;52.054;8.524;2023-04-07T00:06:44;8.10;97.00
10030;DHT22;5055;52.054;8.524;2023-04-07T00:09:12;8.10;97.00
10030;DHT22;5055;52.054;8.524;2023-04-07T00:11:40;8.10;97.00
10030;DHT22;5055;52.054;8.524;2023-04-07T00:14:08;8.10;97.00
10030;DHT22;5055;52.054;8.524;2023-04-07T00:16:37;8.10;97.00
10030;DHT22;5055;52.054;8.524;2023-04-07T00:19:06;8.10;97.00
10030;DHT22;5055;52.054;8.524;2023-04-07T00:21:34;8.10;97.00
10030;DHT22;5055;52.054;8.524;2023-04-07T00:24:02;8.10;97.00
10030;DHT22;5055;52.054;8.524;2023-04-07T00:26:30;8.00;97.00
10030;DHT22;5055;52.054;8.524;2023-04-07T00:28:59;8.00;97.00
10030;DHT22;5055;52.054;8.524;2023-04-07T00:31:27;8.00;97.00
10030;DHT22;5055;52.054;8.524;2023-04-07T00:33:57;8.00;97.00
10030;DHT22;5055;52.054;8.524;2023-04-07T00:36:25;8.00;97.00
10030;DHT22;5055;52.054;8.524;2023-04-07T00:38:54;8.00;97.00
10030;DHT22;5055;52.054;8.524;2023-04-07T00:41:22;7.90;97.00
10030;DHT22;5055;52.054;8.524;2023-04-07T00:43:50;7.90;97.00
10030;DHT22;5055;52.054;8.524;2023-04-07T00:46:21;7.90;97.00
10030;DHT22;5055;52.054;8.524;2023-04-07T00:48:49;7.90;97.00
10030;DHT22;5055;52.054;8.524;2023-04-07T00:51:20;7.90;97.00
10030;DHT22;5055;52.054;8.524;2023-04-07T00:53:48;7.90;97.00
10030;DHT22;5055;52.054;8.524;2023-04-07T00:56:16;7.80;97.00
10030;DHT22;5055;52.054;8.524;2023-04-07T00:58:44;7.80;97.00
10030;DHT22;5055;52.054;8.524;2023-04-07T01:01:18;7.80;97.00
10030;DHT22;5055;52.054;8.524;2023-04-07T01:03:52;7.80;97.00
10030;DHT22;5055;52.054;8.524;2023-04-07T01:06:25;7.80;97.00
10030;DHT22;5055;52.054;8.524;2023-04-07T01:09:01;7.80;97.00
10030;DHT22;5055;52.054;8.524;2023-04-07T01:11:36;7.80;97.00
10030;DHT22;5055;52.054;8.524;2023-04-07T01:14:05;7.80;97.00
10030;DHT22;5055;52.054;8.524;2023-04-07T01:16:36;7.80;97.00
10030;DHT22;5055;52.054;8.524;2023-04-07T01:19:13;7.80;97.00
10030;DHT22;5055;52.054;8.524;2023-04-07T01:21:46;7.80;97.00
10030;DHT22;5055;52.054;8.524;2023-04-07T01:24:32;7.80;97.00
10030;DHT22;5055;52.054;8.524;2023-04-07T01:27:11;7.70;97.00
10030;DHT22;5055;52.054;8.524;2023-04-07T01:29:44;7.70;97.00
10030;DHT22;5055;52.054;8.524;2023-04-07T01:32:15;7.70;97.00
10030;DHT22;5055;52.054;8.524;2023-04-07T01:34:44;7.70;97.00
10030;DHT22;5055;52.054;8.524;2023-04-07T01:37:15;7.70;97.00
10030;DHT22;5055;52.054;8.524;2023-04-07T01:39:43;7.70;97.00
10030;DHT22;5055;52.054;8.524;2023-04-07T01:42:12;7.70;97.00
10030;DHT22;5055;52.054;8.524;2023-04-07T01:44:42;7.70;97.00
10030;DHT22;5055;52.054;8.524;2023-04-07T01:47:11;7.70;97.00
10030;DHT22;5055;52.054;8.524;2023-04-07T01:49:40;7.70;97.00
10030;DHT22;5055;52.054;8.524;2023-04-07T01:52:08;7.70;97.00
10030;DHT22;5055;52.054;8.524;2023-04-07T01:54:37;7.70;97.00
10030;DHT22;5055;52.054;8.524;2023-04-07T01:57:06;7.70;97.00
10030;DHT22;5055;52.054;8.524;2023-04-07T01:59:35;7.70;97.00
10030;DHT22;5055;52.054;8.524;2023-04-07T02:02:04;7.70;97.00
10030;DHT22;5055;52.054;8.524;2023-04-07T02:04:36;7.70;97.00
10030;DHT22;5055;52.054;8.524;2023-04-07T02:07:07;7.70;97.00
10030;DHT22;5055;52.054;8.524;2023-04-07T02:09:38;7.60;97.00
10030;DHT22;5055;52.054;8.524;2023-04-07T02:12:08;7.60;97.00
10030;DHT22;5055;52.054;8.524;2023-04-07T02:14:38;7.60;97.00
10030;DHT22;5055;52.054;8.524;2023-04-07T02:17:09;7.60;97.00
10030;DHT22;5055;52.054;8.524;2023-04-07T02:19:37;7.60;97.00
10030;DHT22;5055;52.054;8.524;2023-04-07T02:22:05;7.60;97.00
10030;DHT22;5055;52.054;8.524;2023-04-07T02:24:34;7.50;97.00
10030;DHT22;5055;52.054;8.524;2023-04-07T02:27:03;7.50;97.00
10030;DHT22;5055;52.054;8.524;2023-04-07T02:29:31;7.50;97.00
10030;DHT22;5055;52.054;8.524;2023-04-07T02:31:59;7.40;97.00
10030;DHT22;5055;52.054;8.524;2023-04-07T02:34:28;7.40;97.00
10030;DHT22;5055;52.054;8.524;2023-04-07T02:36:57;7.30;97.00
10030;DHT22;5055;52.054;8.524;2023-04-07T02:39:25;7.30;97.00
10030;DHT22;5055;52.054;8.524;2023-04-07T02:41:56;7.20;97.00
10030;DHT22;5055;52.054;8.524;2023-04-07T02:44:24;7.20;97.00
10030;DHT22;5055;52.054;8.524;2023-04-07T02:46:55;7.10;97.00
10030;DHT22;5055;52.054;8.524;2023-04-07T02:49:23;7.10;97.00
10030;DHT22;5055;52.054;8.524;2023-04-07T02:51:52;7.10;97.00
10030;DHT22;5055;52.054;8.524;2023-04-07T02:54:20;7.00;97.00
10030;DHT22;5055;52.054;8.524;2023-04-07T02:56:48;7.00;97.00
10030;DHT22;5055;52.054;8.524;2023-04-07T02:59:19;7.00;97.00
10030;DHT22;5055;52.054;8.524;2023-04-07T03:01:46;7.00;97.00
10030;DHT22;5055;52.054;8.524;2023-04-07T03:04:15;7.00;97.00
10030;DHT22;5055;52.054;8.524;2023-04-07T03:06:43;6.90;97.00
10030;DHT22;5055;52.054;8.524;2023-04-07T03:09:13;6.90;97.00
10030;DHT22;5055;52.054;8.524;2023-04-07T03:11:43;6.90;97.00
10030;DHT22;5055;52.054;8.524;2023-04-07T03:14:11;6.90;97.00
10030;DHT22;5055;52.054;8.524;2023-04-07T03:16:39;6.90;97.00
10030;DHT22;5055;52.054;8.524;2023-04-07T03:19:08;6.90;97.00
10030;DHT22;5055;52.054;8.524;2023-04-07T03:21:37;6.90;97.00
10030;DHT22;5055;52.054;8.524;2023-04-07T03:24:06;6.90;97.00
10030;DHT22;5055;52.054;8.524;2023-04-07T03:26:35;6.80;97.00
10030;DHT22;5055;52.054;8.524;2023-04-07T03:29:04;6.80;97.00
10030;DHT22;5055;52.054;8.524;2023-04-07T03:31:32;6.80;97.00
10030;DHT22;5055;52.054;8.524;2023-04-07T03:34:00;6.80;97.00
10030;DHT22;5055;52.054;8.524;2023-04-07T03:36:28;6.80;97.00
10030;DHT22;5055;52.054;8.524;2023-04-07T03:38:57;6.80;97.00
10030;DHT22;5055;52.054;8.524;2023-04-07T03:41:25;6.80;97.00
10030;DHT22;5055;52.054;8.524;2023-04-07T03:43:54;6.80;97.00
10030;DHT22;5055;52.054;8.524;2023-04-07T03:46:23;6.80;97.00
10030;DHT22;5055;52.054;8.524;2023-04-07T03:48:53;6.70;97.00
10030;DHT22;5055;52.054;8.524;2023-04-07T03:51:21;6.70;97.00
10030;DHT22;5055;52.054;8.524;2023-04-07T03:53:51;6.70;97.00
10030;DHT22;5055;52.054;8.524;2023-04-07T03:56:19;6.70;97.00
10030;DHT22;5055;52.054;8.524;2023-04-07T03:58:48;6.70;97.00
10030;DHT22;5055;52.054;8.524;2023-04-07T04:01:17;6.70;97.00
10030;DHT22;5055;52.054;8.524;2023-04-07T04:03:46;6.70;97.00
10030;DHT22;5055;52.054;8.524;2023-04-07T04:06:14;6.70;97.00
10030;DHT22;5055;52.054;8.524;2023-04-07T04:08:42;6.70;97.00
10030;DHT22;5055;52.054;8.524;2023-04-07T04:11:10;6.70;97.00
10030;DHT22;5055;52.054;8.524;2023-04-07T04:13:38;6.70;97.00
10030;DHT22;5055;52.054;8.524;2023-04-07T04:16:07;6.70;97.00
10030;DHT22;5055;52.054;8.524;2023-04-07T04:18:36;6.60;97.00
10030;DHT22;5055;52.054;8.524;2023-04-07T04:21:05;6.60;97.00
10030;DHT22;5055;52.054;8.524;2023-04-07T04:23:33;6.60;97.00
10030;DHT22;5055;52.054;8.524;2023-04-07T04:26:01;6.60;97.00
10030;DHT22;5055;52.054;8.524;2023-04-07T04:28:30;6.60;97.00
10030;DHT22;5055;52.054;8.524;2023-04-07T04:30:58;6.60;97.00
10030;DHT22;5055;52.054;8.524;2023-04-07T04:33:26;6.60;97.00
10030;DHT22;5055;52.054;8.524;2023-04-07T04:35:55;6.60;97.00
10030;DHT22;5055;52.054;8.524;2023-04-07T04:38:23;6.60;97.00
10030;DHT22;5055;52.054;8.524;2023-04-07T04:40:51;6.60;97.00
10030;DHT22;5055;52.054;8.524;2023-04-07T04:43:19;6.60;97.00
10030;DHT22;5055;52.054;8.524;2023-04-07T04:45:47;6.60;97.00
10030;DHT22;5055;52.054;8.524;2023-04-07T04:48:16;6.60;97.00
10030;DHT22;5055;52.054;8.524;2023-04-07T04:50:44;6.60;97.00
10030;DHT22;5055;52.054;8.524;2023-04-07T04:53:13;6.60;97.00
10030;DHT22;5055;52.054;8.524;2023-04-07T04:55:41;6.60;97.00
10030;DHT22;5055;52.054;8.524;2023-04-07T04:58:12;6.60;97.00
10030;DHT22;5055;52.054;8.524;2023-04-07T05:00:40;6.60;97.00
10030;DHT22;5055;52.054;8.524;2023-04-07T05:03:08;6.60;97.00
10030;DHT22;5055;52.054;8.524;2023-04-07T05:05:37;6.60;97.00
10030;DHT22;5055;52.054;8.524;2023-04-07T05:08:05;6.60;97.00
10030;DHT22;5055;52.054;8.524;2023-04-07T05:10:38;6.60;97.00
10030;DHT22;5055;52.054;8.524;2023-04-07T05:13:07;6.60;97.00
10030;DHT22;5055;52.054;8.524;2023-04-07T05:15:35;6.60;97.00
10030;DHT22;5055;52.054;8.524;2023-04-07T05:18:03;6.60;97.00
10030;DHT22;5055;52.054;8.524;2023-04-07T05:20:31;6.70;97.00
10030;DHT22;5055;52.054;8.524;2023-04-07T05:22:59;6.70;97.00
10030;DHT22;5055;52.054;8.524;2023-04-07T05:25:27;6.70;97.00
10030;DHT22;5055;52.054;8.524;2023-04-07T05:27:57;6.70;97.00
10030;DHT22;5055;52.054;8.524;2023-04-07T05:30:25;6.70;97.00
10030;DHT22;5055;52.054;8.524;2023-04-07T05:32:53;6.70;97.00
10030;DHT22;5055;52.054;8.524;2023-04-07T05:35:21;6.80;97.00
10030;DHT22;5055;52.054;8.524;2023-04-07T05:37:49;6.80;97.00
10030;DHT22;5055;52.054;8.524;2023-04-07T05:40:18;6.80;97.00
10030;DHT22;5055;52.054;8.524;2023-04-07T05:42:46;6.80;97.00
10030;DHT22;5055;52.054;8.524;2023-04-07T05:45:15;6.80;97.00
10030;DHT22;5055;52.054;8.524;2023-04-07T05:47:43;6.80;97.00
10030;DHT22;5055;52.054;8.524;2023-04-07T05:50:13;6.80;97.00
10030;DHT22;5055;52.054;8.524;2023-04-07T05:52:41;6.80;97.00
10030;DHT22;5055;52.054;8.524;2023-04-07T05:55:11;6.80;97.00
10030;DHT22;5055;52.054;8.524;2023-04-07T05:57:39;6.80;97.00
10030;DHT22;5055;52.054;8.524;2023-04-07T06:00:09;6.80;97.00
10030;DHT22;5055;52.054;8.524;2023-04-07T06:02:39;6.80;97.00
10030;DHT22;5055;52.054;8.524;2023-04-07T06:05:07;6.80;97.00
10030;DHT22;5055;52.054;8.524;2023-04-07T06:07:35;6.80;97.00
10030;DHT22;5055;52.054;8.524;2023-04-07T06:10:04;6.80;97.00
10030;DHT22;5055;52.054;8.524;2023-04-07T06:12:32;6.80;97.00
10030;DHT22;5055;52.054;8.524;2023-04-07T06:15:00;6.90;97.00
10030;DHT22;5055;52.054;8.524;2023-04-07T06:17:28;6.90;97.00
10030;DHT22;5055;52.054;8.524;2023-04-07T06:19:58;6.90;97.00
10030;DHT22;5055;52.054;8.524;2023-04-07T06:22:26;6.90;97.00
10030;DHT22;5055;52.054;8.524;2023-04-07T06:24:54;6.90;97.00
10030;DHT22;5055;52.054;8.524;2023-04-07T06:27:22;7.00;97.00
10030;DHT22;5055;52.054;8.524;2023-04-07T06:29:50;7.00;97.00
10030;DHT22;5055;52.054;8.524;2023-04-07T06:32:18;7.00;97.00
10030;DHT22;5055;52.054;8.524;2023-04-07T06:34:47;7.00;97.00
10030;DHT22;5055;52.054;8.524;2023-04-07T06:37:16;7.10;97.00
10030;DHT22;5055;52.054;8.524;2023-04-07T06:39:45;7.10;97.00
10030;DHT22;5055;52.054;8.524;2023-04-07T06:42:13;7.10;97.00
10030;DHT22;5055;52.054;8.524;2023-04-07T06:44:41;7.10;97.00
10030;DHT22;5055;52.054;8.524;2023-04-07T06:47:09;7.20;97.00
10030;DHT22;5055;52.054;8.524;2023-04-07T06:49:37;7.30;97.00
10030;DHT22;5055;52.054;8.524;2023-04-07T06:52:05;7.30;97.00
10030;DHT22;5055;52.054;8.524;2023-04-07T06:54:34;7.30;97.00
10030;DHT22;5055;52.054;8.524;2023-04-07T06:57:02;7.40;97.00
10030;DHT22;5055;52.054;8.524;2023-04-07T06:59:32;7.40;97.00
10030;DHT22;5055;52.054;8.524;2023-04-07T07:02:00;7.40;97.00
10030;DHT22;5055;52.054;8.524;2023-04-07T07:04:29;7.50;97.00
10030;DHT22;5055;52.054;8.524;2023-04-07T07:06:57;7.50;97.00
10030;DHT22;5055;52.054;8.524;2023-04-07T07:09:25;7.60;97.00
10030;DHT22;5055;52.054;8.524;2023-04-07T07:11:54;7.70;97.00
10030;DHT22;5055;52.054;8.524;2023-04-07T07:14:23;7.70;97.00
10030;DHT22;5055;52.054;8.524;2023-04-07T07:16:51;7.70;97.00
10030;DHT22;5055;52.054;8.524;2023-04-07T07:19:19;7.70;97.00
10030;DHT22;5055;52.054;8.524;2023-04-07T07:21:47;7.70;97.00
10030;DHT22;5055;52.054;8.524;2023-04-07T07:24:15;7.80;97.00
10030;DHT22;5055;52.054;8.524;2023-04-07T07:26:43;7.80;97.00
10030;DHT22;5055;52.054;8.524;2023-04-07T07:29:13;7.80;97.00
10030;DHT22;5055;52.054;8.524;2023-04-07T07:31:41;7.90;97.00
10030;DHT22;5055;52.054;8.524;2023-04-07T07:34:09;7.90;97.00
10030;DHT22;5055;52.054;8.524;2023-04-07T07:36:37;8.00;97.00
10030;DHT22;5055;52.054;8.524;2023-04-07T07:39:05;8.10;97.00
10030;DHT22;5055;52.054;8.524;2023-04-07T07:41:33;8.20;97.00
10030;DHT22;5055;52.054;8.524;2023-04-07T07:44:02;8.20;97.00
10030;DHT22;5055;52.054;8.524;2023-04-07T07:46:31;8.30;97.00
10030;DHT22;5055;52.054;8.524;2023-04-07T07:48:59;8.40;97.00
10030;DHT22;5055;52.054;8.524;2023-04-07T07:51:28;8.40;97.00
10030;DHT22;5055;52.054;8.524;2023-04-07T07:53:56;8.70;97.00
10030;DHT22;5055;52.054;8.524;2023-04-07T07:56:24;8.80;97.00
10030;DHT22;5055;52.054;8.524;2023-04-07T07:58:53;8.90;97.00
10030;DHT22;5055;52.054;8.524;2023-04-07T08:01:22;9.00;97.00
10030;DHT22;5055;52.054;8.524;2023-04-07T08:03:52;9.10;97.00
10030;DHT22;5055;52.054;8.524;2023-04-07T08:06:20;9.20;97.00
10030;DHT22;5055;52.054;8.524;2023-04-07T08:08:52;9.20;97.00
10030;DHT22;5055;52.054;8.524;2023-04-07T08:11:20;9.10;97.00
10030;DHT22;5055;52.054;8.524;2023-04-07T08:13:48;9.20;97.00
10030;DHT22;5055;52.054;8.524;2023-04-07T08:16:17;9.20;97.00
10030;DHT22;5055;52.054;8.524;2023-04-07T08:18:45;9.40;97.00
10030;DHT22;5055;52.054;8.524;2023-04-07T08:21:15;9.50;97.00
10030;DHT22;5055;52.054;8.524;2023-04-07T08:23:43;9.40;97.00
10030;DHT22;5055;52.054;8.524;2023-04-07T08:26:12;9.40;97.00
10030;DHT22;5055;52.054;8.524;2023-04-07T08:28:40;9.50;97.00
10030;DHT22;5055;52.054;8.524;2023-04-07T08:31:08;9.50;97.00
10030;DHT22;5055;52.054;8.524;2023-04-07T08:33:36;9.40;97.00
10030;DHT22;5055;52.054;8.524;2023-04-07T08:36:05;9.40;97.00
10030;DHT22;5055;52.054;8.524;2023-04-07T08:38:35;9.40;97.00
10030;DHT22;5055;52.054;8.524;2023-04-07T08:41:05;9.50;97.00
10030;DHT22;5055;52.054;8.524;2023-04-07T08:43:34;9.60;97.00
10030;DHT22;5055;52.054;8.524;2023-04-07T08:46:04;9.70;97.00
10030;DHT22;5055;52.054;8.524;2023-04-07T08:48:33;9.70;97.00
10030;DHT22;5055;52.054;8.524;2023-04-07T08:51:04;9.70;97.00
10030;DHT22;5055;52.054;8.524;2023-04-07T08:53:37;9.80;97.00
10030;DHT22;5055;52.054;8.524;2023-04-07T08:56:08;9.90;97.00
10030;DHT22;5055;52.054;8.524;2023-04-07T08:58:38;9.90;97.00
10030;DHT22;5055;52.054;8.524;2023-04-07T09:01:08;9.90;97.00
10030;DHT22;5055;52.054;8.524;2023-04-07T09:03:37;10.00;97.00
10030;DHT22;5055;52.054;8.524;2023-04-07T09:06:05;9.90;97.00
10030;DHT22;5055;52.054;8.524;2023-04-07T09:08:35;9.90;97.00
10030;DHT22;5055;52.054;8.524;2023-04-07T09:11:03;9.90;97.00
10030;DHT22;5055;52.054;8.524;2023-04-07T09:13:32;10.00;97.00
10030;DHT22;5055;52.054;8.524;2023-04-07T09:16:02;10.20;97.00
10030;DHT22;5055;52.054;8.524;2023-04-07T09:18:30;10.30;97.00
10030;DHT22;5055;52.054;8.524;2023-04-07T09:21:03;10.30;97.00
10030;DHT22;5055;52.054;8.524;2023-04-07T09:23:41;10.30;97.00
10030;DHT22;5055;52.054;8.524;2023-04-07T09:26:20;10.50;97.00
10030;DHT22;5055;52.054;8.524;2023-04-07T09:28:53;10.50;97.00
10030;DHT22;5055;52.054;8.524;2023-04-07T09:31:42;10.40;97.00
10030;DHT22;5055;52.054;8.524;2023-04-07T09:34:23;10.30;97.00
10030;DHT22;5055;52.054;8.524;2023-04-07T09:36:52;10.50;97.00
10030;DHT22;5055;52.054;8.524;2023-04-07T09:39:22;10.50;97.00
10030;DHT22;5055;52.054;8.524;2023-04-07T09:41:50;10.60;97.00
10030;DHT22;5055;52.054;8.524;2023-04-07T09:44:19;10.80;97.00
10030;DHT22;5055;52.054;8.524;2023-04-07T09:46:48;10.80;97.00
10030;DHT22;5055;52.054;8.524;2023-04-07T09:49:16;10.80;97.00
10030;DHT22;5055;52.054;8.524;2023-04-07T09:51:55;10.90;97.00
10030;DHT22;5055;52.054;8.524;2023-04-07T09:54:34;10.90;97.00
10030;DHT22;5055;52.054;8.524;2023-04-07T09:57:04;11.00;97.00
10030;DHT22;5055;52.054;8.524;2023-04-07T09:59:37;10.90;97.00
10030;DHT22;5055;52.054;8.524;2023-04-07T10:02:07;10.90;97.00
10030;DHT22;5055;52.054;8.524;2023-04-07T10:04:37;11.00;97.00
10030;DHT22;5055;52.054;8.524;2023-04-07T10:07:07;11.00;97.00
10030;DHT22;5055;52.054;8.524;2023-04-07T10:09:36;11.00;97.00
10030;DHT22;5055;52.054;8.524;2023-04-07T10:12:05;11.20;97.00
10030;DHT22;5055;52.054;8.524;2023-04-07T10:14:35;11.30;97.00
10030;DHT22;5055;52.054;8.524;2023-04-07T10:17:06;11.30;97.00
10030;DHT22;5055;52.054;8.524;2023-04-07T10:19:36;11.40;97.00
10030;DHT22;5055;52.054;8.524;2023-04-07T10:22:05;11.50;97.00
10030;DHT22;5055;52.054;8.524;2023-04-07T10:24:45;11.70;97.00
10030;DHT22;5055;52.054;8.524;2023-04-07T10:27:26;11.60;97.00
10030;DHT22;5055;52.054;8.524;2023-04-07T10:29:56;11.40;97.00
10030;DHT22;5055;52.054;8.524;2023-04-07T10:32:26;11.70;97.00
10030;DHT22;5055;52.054;8.524;2023-04-07T10:34:58;12.00;97.00
10030;DHT22;5055;52.054;8.524;2023-04-07T10:37:28;12.30;97.00
10030;DHT22;5055;52.054;8.524;2023-04-07T10:43:07;12.70;97.00
10030;DHT22;5055;52.054;8.524;2023-04-07T10:45:56;12.60;97.00
10030;DHT22;5055;52.054;8.524;2023-04-07T10:48:26;12.30;97.00
10030;DHT22;5055;52.054;8.524;2023-04-07T10:51:15;12.30;97.00
10030;DHT22;5055;52.054;8.524;2023-04-07T10:54:18;12.50;97.00
10030;DHT22;5055;52.054;8.524;2023-04-07T10:57:08;12.50;97.00
10030;DHT22;5055;52.054;8.524;2023-04-07T10:59:40;12.70;97.00
10030;DHT22;5055;52.054;8.524;2023-04-07T11:02:33;13.00;97.00
10030;DHT22;5055;52.054;8.524;2023-04-07T11:05:03;12.80;97.00
10030;DHT22;5055;52.054;8.524;2023-04-07T11:07:58;12.90;97.00
10030;DHT22;5055;52.054;8.524;2023-04-07T11:10:28;13.20;97.00
10030;DHT22;5055;52.054;8.524;2023-04-07T11:13:01;13.20;97.00
10030;DHT22;5055;52.054;8.524;2023-04-07T11:15:31;12.90;97.00
10030;DHT22;5055;52.054;8.524;2023-04-07T11:18:16;12.90;97.00
10030;DHT22;5055;52.054;8.524;2023-04-07T11:20:50;12.60;97.00
10030;DHT22;5055;52.054;8.524;2023-04-07T11:23:20;12.70;97.00
10030;DHT22;5055;52.054;8.524;2023-04-07T11:25:50;12.80;97.00
10030;DHT22;5055;52.054;8.524;2023-04-07T11:28:18;13.00;97.00
10030;DHT22;5055;52.054;8.524;2023-04-07T11:30:50;13.50;97.00
10030;DHT22;5055;52.054;8.524;2023-04-07T11:33:19;13.80;97.00
10030;DHT22;5055;52.054;8.524;2023-04-07T11:35:53;14.00;97.00
10030;DHT22;5055;52.054;8.524;2023-04-07T11:38:24;13.70;97.00
10030;DHT22;5055;52.054;8.524;2023-04-07T11:40:53;13.50;97.00
10030;DHT22;5055;52.054;8.524;2023-04-07T11:43:23;13.20;97.00
10030;DHT22;5055;52.054;8.524;2023-04-07T11:46:09;12.90;97.00
10030;DHT22;5055;52.054;8.524;2023-04-07T11:48:39;13.10;97.00
10030;DHT22;5055;52.054;8.524;2023-04-07T11:51:15;12.80;97.00
10030;DHT22;5055;52.054;8.524;2023-04-07T11:53:44;12.80;97.00
10030;DHT22;5055;52.054;8.524;2023-04-07T11:56:18;12.60;97.00
10030;DHT22;5055;52.054;8.524;2023-04-07T11:58:49;12.70;97.00
10030;DHT22;5055;52.054;8.524;2023-04-07T12:01:18;12.60;97.00
10030;DHT22;5055;52.054;8.524;2023-04-07T12:03:57;12.80;97.00
10030;DHT22;5055;52.054;8.524;2023-04-07T12:06:27;12.70;97.00
10030;DHT22;5055;52.054;8.524;2023-04-07T12:08:56;12.80;97.00
10030;DHT22;5055;52.054;8.524;2023-04-07T12:11:24;13.10;97.00
10030;DHT22;5055;52.054;8.524;2023-04-07T12:13:53;13.20;97.00
10030;DHT22;5055;52.054;8.524;2023-04-07T12:16:23;13.20;97.00
10030;DHT22;5055;52.054;8.524;2023-04-07T12:18:52;13.10;97.00
10030;DHT22;5055;52.054;8.524;2023-04-07T12:21:20;13.10;97.00
10030;DHT22;5055;52.054;8.524;2023-04-07T12:23:48;13.00;97.00
10030;DHT22;5055;52.054;8.524;2023-04-07T12:26:17;13.10;97.00
10030;DHT22;5055;52.054;8.524;2023-04-07T12:28:49;13.20;97.00
10030;DHT22;5055;52.054;8.524;2023-04-07T12:31:17;13.10;97.00
10030;DHT22;5055;52.054;8.524;2023-04-07T12:33:46;13.20;97.00
10030;DHT22;5055;52.054;8.524;2023-04-07T12:36:15;13.20;97.00
10030;DHT22;5055;52.054;8.524;2023-04-07T12:38:44;13.20;97.00
10030;DHT22;5055;52.054;8.524;2023-04-07T12:41:12;13.30;97.00
10030;DHT22;5055;52.054;8.524;2023-04-07T12:43:41;13.30;97.00
10030;DHT22;5055;52.054;8.524;2023-04-07T12:46:12;13.40;97.00
10030;DHT22;5055;52.054;8.524;2023-04-07T12:48:40;13.30;97.00
10030;DHT22;5055;52.054;8.524;2023-04-07T12:51:09;13.30;97.00
10030;DHT22;5055;52.054;8.524;2023-04-07T12:53:37;13.40;97.00
10030;DHT22;5055;52.054;8.524;2023-04-07T12:56:06;13.60;97.00
10030;DHT22;5055;52.054;8.524;2023-04-07T12:58:34;13.70;97.00
10030;DHT22;5055;52.054;8.524;2023-04-07T13:01:02;13.70;97.00
10030;DHT22;5055;52.054;8.524;2023-04-07T13:03:30;13.90;97.00
10030;DHT22;5055;52.054;8.524;2023-04-07T13:05:58;14.10;97.00
10030;DHT22;5055;52.054;8.524;2023-04-07T13:08:28;14.00;97.00
10030;DHT22;5055;52.054;8.524;2023-04-07T13:10:57;13.90;97.00
10030;DHT22;5055;52.054;8.524;2023-04-07T13:13:25;13.90;97.00
10030;DHT22;5055;52.054;8.524;2023-04-07T13:15:53;14.00;97.00
10030;DHT22;5055;52.054;8.524;2023-04-07T13:18:21;14.40;97.00
10030;DHT22;5055;52.054;8.524;2023-04-07T13:20:49;15.00;97.00
10030;DHT22;5055;52.054;8.524;2023-04-07T13:23:38;15.40;97.00
10030;DHT22;5055;52.054;8.524;2023-04-07T13:26:10;15.80;97.00
10030;DHT22;5055;52.054;8.524;2023-04-07T13:28:38;16.10;97.00
10030;DHT22;5055;52.054;8.524;2023-04-07T13:31:07;16.50;97.00
10030;DHT22;5055;52.054;8.524;2023-04-07T13:33:37;17.00;97.00
10030;DHT22;5055;52.054;8.524;2023-04-07T13:36:06;17.60;97.00
10030;DHT22;5055;52.054;8.524;2023-04-07T13:38:35;17.90;97.00
10030;DHT22;5055;52.054;8.524;2023-04-07T13:41:04;18.30;97.00
10030;DHT22;5055;52.054;8.524;2023-04-07T13:43:33;18.10;97.00
10030;DHT22;5055;52.054;8.524;2023-04-07T13:46:01;18.10;97.00
10030;DHT22;5055;52.054;8.524;2023-04-07T13:48:35;18.30;97.00
10030;DHT22;5055;52.054;8.524;2023-04-07T13:51:03;18.60;97.00
10030;DHT22;5055;52.054;8.524;2023-04-07T13:53:31;18.50;97.00
10030;DHT22;5055;52.054;8.524;2023-04-07T13:56:00;18.80;97.00
10030;DHT22;5055;52.054;8.524;2023-04-07T13:58:30;19.10;97.00
10030;DHT22;5055;52.054;8.524;2023-04-07T14:00:59;19.40;97.00
10030;DHT22;5055;52.054;8.524;2023-04-07T14:03:28;20.10;97.00
10030;DHT22;5055;52.054;8.524;2023-04-07T14:06:01;20.60;97.00
10030;DHT22;5055;52.054;8.524;2023-04-07T14:08:30;20.90;97.00
10030;DHT22;5055;52.054;8.524;2023-04-07T14:10:58;21.10;97.00
10030;DHT22;5055;52.054;8.524;2023-04-07T14:13:26;21.00;97.00
10030;DHT22;5055;52.054;8.524;2023-04-07T14:15:56;20.30;97.00
10030;DHT22;5055;52.054;8.524;2023-04-07T14:18:25;20.10;97.00
10030;DHT22;5055;52.054;8.524;2023-04-07T14:20:53;20.60;97.00
10030;DHT22;5055;52.054;8.524;2023-04-07T14:23:21;20.60;97.00
10030;DHT22;5055;52.054;8.524;2023-04-07T14:26:03;21.10;97.00
10030;DHT22;5055;52.054;8.524;2023-04-07T14:28:31;21.30;97.00
10030;DHT22;5055;52.054;8.524;2023-04-07T14:31:00;20.80;97.00
10030;DHT22;5055;52.054;8.524;2023-04-07T14:33:29;21.60;97.00
10030;DHT22;5055;52.054;8.524;2023-04-07T14:35:57;21.70;97.00
10030;DHT22;5055;52.054;8.524;2023-04-07T14:38:25;21.70;97.00
10030;DHT22;5055;52.054;8.524;2023-04-07T14:40:53;22.00;97.00
10030;DHT22;5055;52.054;8.524;2023-04-07T14:43:21;21.50;97.00
10030;DHT22;5055;52.054;8.524;2023-04-07T14:45:49;21.90;97.00
10030;DHT22;5055;52.054;8.524;2023-04-07T14:48:19;21.90;97.00
10030;DHT22;5055;52.054;8.524;2023-04-07T14:50:48;22.50;97.00
10030;DHT22;5055;52.054;8.524;2023-04-07T14:53:32;22.10;97.00
10030;DHT22;5055;52.054;8.524;2023-04-07T14:56:03;21.90;97.00
10030;DHT22;5055;52.054;8.524;2023-04-07T14:58:32;22.20;97.00
10030;DHT22;5055;52.054;8.524;2023-04-07T15:01:03;22.60;97.00
10030;DHT22;5055;52.054;8.524;2023-04-07T15:03:34;22.90;97.00
10030;DHT22;5055;52.054;8.524;2023-04-07T15:06:06;22.50;97.00
10030;DHT22;5055;52.054;8.524;2023-04-07T15:08:35;22.50;97.00
10030;DHT22;5055;52.054;8.524;2023-04-07T15:11:04;22.80;97.00
10030;DHT22;5055;52.054;8.524;2023-04-07T15:13:32;23.00;97.00
10030;DHT22;5055;52.054;8.524;2023-04-07T15:16:08;23.30;97.00
10030;DHT22;5055;52.054;8.524;2023-04-07T15:18:39;23.20;97.00
10030;DHT22;5055;52.054;8.524;2023-04-07T15:21:08;21.70;97.00
10030;DHT22;5055;52.054;8.524;2023-04-07T15:23:37;20.20;97.00
10030;DHT22;5055;52.054;8.524;2023-04-07T15:26:08;19.70;97.00
10030;DHT22;5055;52.054;8.524;2023-04-07T15:28:36;19.10;97.00
10030;DHT22;5055;52.054;8.524;2023-04-07T15:31:05;18.30;97.00
10030;DHT22;5055;52.054;8.524;2023-04-07T15:33:38;17.90;97.00
10030;DHT22;5055;52.054;8.524;2023-04-07T15:36:08;17.60;97.00
10030;DHT22;5055;52.054;8.524;2023-04-07T15:38:36;17.40;97.00
10030;DHT22;5055;52.054;8.524;2023-04-07T15:41:06;17.50;97.00
10030;DHT22;5055;52.054;8.524;2023-04-07T15:43:34;18.10;97.00
10030;DHT22;5055;52.054;8.524;2023-04-07T15:46:03;18.50;97.00
10030;DHT22;5055;52.054;8.524;2023-04-07T15:48:32;18.50;97.00
10030;DHT22;5055;52.054;8.524;2023-04-07T15:51:00;18.40;97.00
10030;DHT22;5055;52.054;8.524;2023-04-07T15:53:30;18.10;97.00
10030;DHT22;5055;52.054;8.524;2023-04-07T15:55:58;17.70;97.00
10030;DHT22;5055;52.054;8.524;2023-04-07T15:58:26;17.40;97.00
10030;DHT22;5055;52.054;8.524;2023-04-07T16:00:54;17.20;97.00
10030;DHT22;5055;52.054;8.524;2023-04-07T16:03:22;16.90;97.00
10030;DHT22;5055;52.054;8.524;2023-04-07T16:05:53;16.60;97.00
10030;DHT22;5055;52.054;8.524;2023-04-07T16:08:21;16.20;97.00
10030;DHT22;5055;52.054;8.524;2023-04-07T16:10:51;16.00;97.00
10030;DHT22;5055;52.054;8.524;2023-04-07T16:13:19;15.90;97.00
10030;DHT22;5055;52.054;8.524;2023-04-07T16:15:47;15.70;97.00